Time;durP1;ratioP1;P1;durP2;ratioP2;P2;SDS_P1;SDS_P2;PMS_P1;PMS_P2;Temp;Humidity;BMP_temperature;BMP_pressure;BME280_temperature;BME280_humidity;BME280_pressure;Samples;Min_cycle;Max_cycle;Signal;HPM_P1;HPM_P2
2020/12/04 00:00:30;;;;;;;9.40;7.05;;;4.80;99.90;;;;;;4997092;28;20266;-89
2020/12/04 00:02:59;;;;;;;9.60;7.33;;;4.80;99.90;;;;;;4997354;28;20202;-88
2020/12/04 00:05:27;;;;;;;8.20;6.53;;;4.80;99.90;;;;;;4984910;28;20908;-89
2020/12/04 00:07:56;;;;;;;9.68;7.20;;;4.80;99.90;;;;;;4977535;28;20195;-87
2020/12/04 00:10:21;;;;;;;6.80;5.77;;;5.00;99.90;;;;;;4977079;28;20198;-86
2020/12/04 00:12:57;;;;;;;7.85;6.20;;;4.90;99.90;;;;;;4977937;28;20403;-89
2020/12/04 00:15:25;;;;;;;6.85;6.05;;;4.80;99.90;;;;;;4977074;28;20265;-88
2020/12/04 00:17:51;;;;;;;9.55;7.65;;;4.80;99.90;;;;;;4993576;28;20183;-89
2020/12/04 00:20:17;;;;;;;8.33;6.50;;;4.90;99.90;;;;;;4978119;28;20250;-87
2020/12/04 00:22:45;;;;;;;8.68;6.88;;;4.90;99.90;;;;;;4977928;28;20436;-89
2020/12/04 00:25:11;;;;;;;9.25;6.82;;;4.90;99.90;;;;;;4960917;28;20198;-90
2020/12/04 00:27:37;;;;;;;9.57;6.90;;;4.90;99.90;;;;;;4976857;28;20183;-86
2020/12/04 00:30:03;;;;;;;9.03;6.23;;;4.90;99.90;;;;;;4977700;28;20461;-90
2020/12/04 00:32:29;;;;;;;10.35;7.22;;;5.00;99.90;;;;;;4965414;28;20443;-86
2020/12/04 00:34:55;;;;;;;9.00;7.03;;;4.90;99.90;;;;;;4989050;28;20186;-90
2020/12/04 00:37:23;;;;;;;9.30;7.45;;;4.80;99.90;;;;;;4996968;28;20534;-87
2020/12/04 00:39:52;;;;;;;9.30;6.90;;;4.80;99.90;;;;;;4996467;28;20190;-90
2020/12/04 00:42:17;;;;;;;10.90;8.00;;;4.80;99.90;;;;;;4962669;28;20434;-87
2020/12/04 00:44:43;;;;;;;8.93;6.80;;;4.80;99.90;;;;;;4958128;29;20239;-87
2020/12/04 00:47:12;;;;;;;10.95;7.90;;;4.80;99.90;;;;;;4959155;28;20610;-88
2020/12/04 00:49:38;;;;;;;10.07;7.53;;;4.80;99.90;;;;;;4973604;28;20184;-87
2020/12/04 00:52:04;;;;;;;11.07;7.30;;;5.00;99.90;;;;;;4988464;28;20210;-88
2020/12/04 00:54:30;;;;;;;9.60;6.10;;;4.80;99.90;;;;;;4976641;28;20266;-91
2020/12/04 00:57:00;;;;;;;11.32;7.53;;;4.80;99.90;;;;;;4976987;28;20282;-92
2020/12/04 00:59:32;;;;;;;11.98;7.63;;;4.80;99.90;;;;;;4960836;28;20254;-87
2020/12/04 01:01:58;;;;;;;9.67;7.10;;;4.80;99.90;;;;;;4976528;28;20199;-85
2020/12/04 01:04:24;;;;;;;12.70;8.00;;;4.80;99.90;;;;;;4976413;28;20418;-90
2020/12/04 01:06:50;;;;;;;11.03;6.57;;;4.80;99.90;;;;;;4977514;28;20533;-94
2020/12/04 01:09:16;;;;;;;9.93;7.00;;;4.70;99.90;;;;;;4960557;28;20449;-91
2020/12/04 01:11:42;;;;;;;9.03;7.03;;;4.70;99.90;;;;;;4977184;28;20423;-93
2020/12/04 01:14:11;;;;;;;7.33;6.23;;;4.70;99.90;;;;;;4976320;28;20759;-86
2020/12/04 01:16:37;;;;;;;10.27;7.35;;;4.70;99.90;;;;;;4992672;28;20931;-91
2020/12/04 01:19:05;;;;;;;9.07;6.70;;;4.70;99.90;;;;;;4977471;28;20234;-88
2020/12/04 01:21:31;;;;;;;8.90;6.75;;;4.70;99.90;;;;;;4993778;28;20426;-87
2020/12/04 01:23:57;;;;;;;9.53;7.27;;;4.70;99.90;;;;;;4975455;28;20201;-86
2020/12/04 01:26:23;;;;;;;10.20;6.93;;;4.70;99.90;;;;;;4973934;28;20439;-88
2020/12/04 01:28:51;;;;;;;9.50;6.70;;;4.50;99.90;;;;;;4985114;28;20474;-94
2020/12/04 01:31:17;;;;;;;7.47;5.95;;;4.70;99.90;;;;;;4996143;28;20422;-95
2020/12/04 01:33:43;;;;;;;10.17;6.57;;;4.70;99.90;;;;;;4979324;28;20197;-91
2020/12/04 01:36:09;;;;;;;7.90;6.27;;;4.70;99.90;;;;;;4995134;28;20461;-89
2020/12/04 01:38:37;;;;;;;8.68;6.35;;;4.70;99.90;;;;;;4995634;28;20422;-91
2020/12/04 01:41:05;;;;;;;9.43;6.90;;;4.40;99.90;;;;;;4995412;28;20643;-93
2020/12/04 01:43:31;;;;;;;10.77;7.45;;;4.80;99.90;;;;;;4995652;28;20433;-90
2020/12/04 01:46:00;;;;;;;11.30;7.25;;;4.80;99.90;;;;;;4994886;28;20317;-84
2020/12/04 01:48:26;;;;;;;9.23;7.40;;;4.80;99.90;;;;;;4995719;28;20219;-90
2020/12/04 01:50:55;;;;;;;9.20;7.00;;;4.80;99.90;;;;;;4995378;28;20273;-90
2020/12/04 01:53:22;;;;;;;9.93;7.13;;;4.80;99.90;;;;;;4995867;28;20568;-91
2020/12/04 01:55:50;;;;;;;9.10;7.22;;;4.80;99.90;;;;;;4993405;28;20462;-90
2020/12/04 01:58:17;;;;;;;9.75;7.38;;;4.80;99.90;;;;;;4961261;28;20188;-84
2020/12/04 02:00:44;;;;;;;9.50;6.97;;;4.30;99.90;;;;;;4975207;28;20532;-87
2020/12/04 02:03:12;;;;;;;10.35;7.10;;;4.80;99.90;;;;;;4981242;28;20181;-91
2020/12/04 02:05:47;;;;;;;9.30;7.60;;;4.60;99.90;;;;;;4995927;28;20209;-93
2020/12/04 02:08:51;;;;;;;7.47;6.40;;;4.70;99.90;;;;;;4995374;28;20197;-93
2020/12/04 02:11:22;;;;;;;9.82;7.72;;;4.70;99.90;;;;;;4954142;28;20194;-91
2020/12/04 02:13:50;;;;;;;9.85;7.40;;;4.60;99.90;;;;;;4975774;28;20175;-93
2020/12/04 02:16:17;;;;;;;10.50;6.78;;;4.60;99.90;;;;;;4991789;28;20667;-83
2020/12/04 02:18:43;;;;;;;8.93;7.22;;;4.60;99.90;;;;;;4959379;28;20643;-89
2020/12/04 02:21:10;;;;;;;11.50;8.30;;;4.80;99.90;;;;;;4975491;28;20214;-91
2020/12/04 02:23:43;;;;;;;8.95;7.03;;;4.70;99.90;;;;;;4976232;28;20179;-90
2020/12/04 02:26:10;;;;;;;8.90;6.78;;;4.60;99.90;;;;;;4969168;28;20215;-91
2020/12/04 02:28:37;;;;;;;8.23;6.97;;;4.80;99.90;;;;;;4975033;28;20191;-86
2020/12/04 02:31:09;;;;;;;8.73;6.60;;;4.70;99.90;;;;;;4975638;28;20318;-89
2020/12/04 02:33:37;;;;;;;8.15;6.68;;;4.70;99.90;;;;;;4962982;28;20219;-93
2020/12/04 02:36:07;;;;;;;10.35;6.75;;;4.70;99.90;;;;;;4960861;28;20234;-89
2020/12/04 02:38:35;;;;;;;9.80;6.40;;;4.90;99.90;;;;;;4960055;29;20653;-90
2020/12/04 02:41:11;;;;;;;7.82;6.22;;;4.70;99.90;;;;;;4961009;28;20188;-91
2020/12/04 02:43:39;;;;;;;9.40;6.30;;;4.80;99.90;;;;;;4969905;28;20279;-87
2020/12/04 02:46:07;;;;;;;8.23;6.23;;;4.90;99.90;;;;;;4998370;28;20222;-90
2020/12/04 02:48:33;;;;;;;8.90;6.18;;;4.90;99.90;;;;;;4997685;28;20425;-90
2020/12/04 02:51:02;;;;;;;7.72;5.70;;;5.00;99.90;;;;;;4979577;28;20226;-91
2020/12/04 02:53:30;;;;;;;9.18;6.15;;;4.90;99.90;;;;;;4979300;28;20194;-90
2020/12/04 02:55:58;;;;;;;9.30;6.30;;;4.90;99.90;;;;;;4978613;28;20702;-89
2020/12/04 02:58:24;;;;;;;8.52;6.05;;;4.80;99.90;;;;;;4979659;28;20434;-92
2020/12/04 03:00:50;;;;;;;6.13;5.33;;;4.90;99.90;;;;;;4979848;28;20193;-87
2020/12/04 03:03:16;;;;;;;5.70;4.70;;;4.60;99.90;;;;;;4979115;28;20446;-88
2020/12/04 03:05:42;;;;;;;7.53;5.93;;;4.90;99.90;;;;;;4978925;28;20441;-87
2020/12/04 03:08:08;;;;;;;7.87;5.87;;;4.90;99.90;;;;;;4979396;28;20426;-94
2020/12/04 03:10:35;;;;;;;5.72;5.10;;;4.90;99.90;;;;;;4979338;28;20520;-93
2020/12/04 03:13:05;;;;;;;7.77;5.17;;;4.90;99.90;;;;;;4983541;28;20187;-92
2020/12/04 03:15:33;;;;;;;8.05;5.60;;;4.90;99.90;;;;;;4998968;28;20457;-89
2020/12/04 03:17:59;;;;;;;6.38;5.10;;;5.00;99.90;;;;;;4985586;28;20246;-92
2020/12/04 03:20:27;;;;;;;7.50;5.23;;;5.10;99.90;;;;;;4975117;28;20274;-88
2020/12/04 03:22:58;;;;;;;6.72;5.35;;;4.80;99.90;;;;;;4959921;28;20474;-91
2020/12/04 03:25:26;;;;;;;5.63;4.80;;;5.00;99.90;;;;;;4974983;28;20188;-88
2020/12/04 03:27:54;;;;;;;9.57;4.82;;;5.00;99.90;;;;;;4987727;28;20187;-88
2020/12/04 03:30:20;;;;;;;6.80;5.10;;;5.00;99.90;;;;;;4981396;28;20589;-90
2020/12/04 03:32:48;;;;;;;6.03;4.67;;;5.20;99.90;;;;;;4965511;28;20229;-92
2020/12/04 03:35:14;;;;;;;6.90;5.20;;;5.10;99.90;;;;;;4978778;28;20471;-91
2020/12/04 03:37:42;;;;;;;7.47;5.37;;;5.10;99.90;;;;;;4994131;28;20187;-87
2020/12/04 03:40:08;;;;;;;6.78;5.65;;;5.10;99.90;;;;;;4997376;28;20422;-92
2020/12/04 03:42:36;;;;;;;5.78;4.38;;;5.10;99.90;;;;;;4983311;28;20687;-86
2020/12/04 03:45:02;;;;;;;7.00;5.43;;;5.10;99.90;;;;;;4977509;28;20301;-88
2020/12/04 03:47:28;;;;;;;5.90;4.45;;;5.10;99.90;;;;;;4978692;28;21040;-85
2020/12/04 03:49:54;;;;;;;5.77;5.00;;;5.10;99.90;;;;;;4979749;28;20202;-88
2020/12/04 03:52:20;;;;;;;7.63;5.03;;;5.10;99.90;;;;;;5001629;28;20516;-88
2020/12/04 03:54:51;;;;;;;6.35;5.28;;;5.20;99.90;;;;;;4997281;28;20575;-85
2020/12/04 03:57:17;;;;;;;5.72;4.68;;;5.20;99.90;;;;;;4979022;28;20545;-88
2020/12/04 03:59:43;;;;;;;6.40;4.97;;;5.20;99.90;;;;;;4979592;28;20187;-89
2020/12/04 04:02:08;;;;;;;5.97;5.07;;;5.20;99.90;;;;;;4998318;28;20471;-89
2020/12/04 04:04:34;;;;;;;6.80;5.30;;;5.20;99.90;;;;;;4997263;28;20444;-87
2020/12/04 04:07:00;;;;;;;7.20;5.40;;;5.30;99.90;;;;;;4997218;28;20744;-87
2020/12/04 04:09:26;;;;;;;6.13;4.73;;;5.40;99.90;;;;;;4997885;28;20429;-88
2020/12/04 04:11:54;;;;;;;6.25;5.20;;;5.30;99.90;;;;;;4981073;28;20443;-90
2020/12/04 04:14:21;;;;;;;6.23;4.60;;;5.60;99.90;;;;;;4978115;28;20202;-86
2020/12/04 04:16:51;;;;;;;6.18;5.18;;;5.40;99.90;;;;;;4977949;28;20488;-90
2020/12/04 04:19:17;;;;;;;6.13;4.45;;;5.30;99.90;;;;;;4977993;28;20270;-88
2020/12/04 04:21:43;;;;;;;9.13;5.33;;;5.40;99.90;;;;;;4977463;28;20225;-88
2020/12/04 04:24:11;;;;;;;5.57;5.03;;;5.40;99.90;;;;;;4993327;28;20423;-89
2020/12/04 04:26:37;;;;;;;5.40;4.55;;;5.40;99.90;;;;;;4963399;28;20435;-87
2020/12/04 04:29:06;;;;;;;5.43;4.80;;;5.40;99.90;;;;;;4974187;28;20184;-86
2020/12/04 04:31:32;;;;;;;6.50;5.07;;;5.40;99.90;;;;;;4958397;28;20656;-88
2020/12/04 04:34:03;;;;;;;6.57;4.88;;;5.40;99.90;;;;;;4973426;28;20427;-92
2020/12/04 04:36:31;;;;;;;5.63;4.68;;;5.40;99.90;;;;;;4973582;28;20303;-88
2020/12/04 04:38:59;;;;;;;5.00;3.95;;;5.50;99.90;;;;;;4966118;28;20662;-88
2020/12/04 04:41:28;;;;;;;5.43;4.88;;;5.50;99.90;;;;;;4996511;28;20262;-89
2020/12/04 04:43:54;;;;;;;6.55;4.90;;;5.40;99.90;;;;;;4985514;28;20183;-89
2020/12/04 04:46:34;;;;;;;5.25;4.47;;;5.40;99.90;;;;;;4977715;28;20235;-90
2020/12/04 04:49:08;;;;;;;6.43;4.63;;;5.50;99.90;;;;;;4976574;28;20177;-89
2020/12/04 04:51:37;;;;;;;5.30;4.43;;;5.60;99.90;;;;;;4976913;28;20632;-88
2020/12/04 04:54:03;;;;;;;7.40;4.20;;;5.60;99.90;;;;;;4977006;28;20195;-88
2020/12/04 04:56:29;;;;;;;5.47;4.80;;;5.60;99.90;;;;;;4975379;28;20203;-88
2020/12/04 04:58:55;;;;;;;5.60;4.47;;;5.60;99.90;;;;;;4977464;28;20266;-87
2020/12/04 05:01:27;;;;;;;4.97;3.97;;;5.70;99.90;;;;;;4976329;28;20429;-88
2020/12/04 05:04:02;;;;;;;5.35;4.47;;;5.60;99.90;;;;;;4976599;28;20278;-89
2020/12/04 05:06:35;;;;;;;18.00;4.38;;;5.60;99.90;;;;;;4976240;28;20245;-89
2020/12/04 05:09:05;;;;;;;5.78;4.47;;;5.70;99.90;;;;;;4976569;28;20270;-90
2020/12/04 05:11:35;;;;;;;7.05;4.32;;;5.70;99.90;;;;;;4976479;28;20195;-89
2020/12/04 05:14:16;;;;;;;6.13;4.50;;;5.70;99.90;;;;;;4977299;28;20191;-92
2020/12/04 05:16:44;;;;;;;5.57;3.95;;;5.70;99.90;;;;;;4976940;28;20221;-92
2020/12/04 05:19:12;;;;;;;4.95;4.45;;;5.80;99.90;;;;;;4992157;28;20257;-88
2020/12/04 05:21:38;;;;;;;6.50;5.10;;;5.80;99.90;;;;;;4976724;28;20219;-89
2020/12/04 05:24:05;;;;;;;6.72;3.60;;;5.80;99.90;;;;;;4977043;28;20194;-88
2020/12/04 05:26:36;;;;;;;5.88;4.07;;;5.80;99.90;;;;;;4977304;28;20218;-88
2020/12/04 05:29:05;;;;;;;6.00;4.18;;;5.80;99.90;;;;;;4996642;28;20505;-89
2020/12/04 05:31:37;;;;;;;4.57;4.10;;;5.80;99.90;;;;;;4985371;28;20243;-87
2020/12/04 05:34:23;;;;;;;4.30;3.47;;;5.90;99.90;;;;;;4976724;28;20183;-88
2020/12/04 05:36:50;;;;;;;6.00;4.60;;;5.80;99.90;;;;;;4992211;28;20214;-86
2020/12/04 05:39:19;;;;;;;5.32;3.90;;;5.80;99.90;;;;;;4975781;28;20183;-87
2020/12/04 05:41:47;;;;;;;5.95;4.50;;;5.90;99.90;;;;;;4976788;28;20275;-91
2020/12/04 05:44:13;;;;;;;5.10;3.92;;;5.80;99.90;;;;;;4959602;28;20600;-89
2020/12/04 05:46:50;;;;;;;5.35;4.50;;;5.90;99.90;;;;;;4976212;28;20262;-88
2020/12/04 05:49:16;;;;;;;6.25;4.13;;;5.90;99.90;;;;;;4977136;28;20175;-89
2020/12/04 05:51:51;;;;;;;4.90;3.72;;;5.80;99.90;;;;;;4975837;28;20187;-89
2020/12/04 05:54:18;;;;;;;4.10;3.60;;;5.90;99.90;;;;;;4974092;28;20190;-88
2020/12/04 05:56:51;;;;;;;4.07;3.25;;;5.80;99.90;;;;;;4972784;28;20585;-88
2020/12/04 05:59:21;;;;;;;5.72;4.10;;;5.80;99.90;;;;;;4957173;28;20200;-90
2020/12/04 06:01:47;;;;;;;4.57;3.70;;;5.80;99.90;;;;;;4966256;28;20179;-89
2020/12/04 06:04:18;;;;;;;4.00;3.60;;;5.90;99.90;;;;;;4990876;28;20203;-90
2020/12/04 06:06:49;;;;;;;4.75;3.35;;;5.90;99.90;;;;;;4976239;28;20187;-88
2020/12/04 06:09:21;;;;;;;3.85;3.45;;;5.90;99.90;;;;;;4976339;28;20656;-87
2020/12/04 06:11:52;;;;;;;4.57;3.40;;;5.90;99.90;;;;;;4975523;28;20202;-91
2020/12/04 06:14:26;;;;;;;4.50;3.80;;;5.90;99.90;;;;;;4959797;28;20183;-89
2020/12/04 06:17:01;;;;;;;3.72;3.00;;;6.00;99.90;;;;;;4984884;28;20669;-88
2020/12/04 06:19:31;;;;;;;3.97;3.13;;;6.00;99.90;;;;;;4995996;28;20621;-89
2020/12/04 06:22:08;;;;;;;3.10;2.75;;;6.00;99.90;;;;;;4986703;28;20173;-90
2020/12/04 06:24:55;;;;;;;3.75;2.90;;;6.00;99.90;;;;;;4976462;28;20181;-90
2020/12/04 06:27:34;;;;;;;4.38;3.45;;;6.00;99.90;;;;;;4975661;28;20210;-90
2020/12/04 06:30:01;;;;;;;3.90;3.20;;;6.00;99.90;;;;;;4976093;28;20184;-92
2020/12/04 06:32:42;;;;;;;4.82;3.13;;;6.10;99.90;;;;;;4959601;28;20215;-88
2020/12/04 06:35:10;;;;;;;6.07;3.22;;;6.10;99.90;;;;;;4975478;28;20183;-93
2020/12/04 06:37:45;;;;;;;3.75;2.78;;;6.10;99.90;;;;;;4975577;28;20605;-90
2020/12/04 06:40:32;;;;;;;3.40;2.90;;;6.30;99.90;;;;;;4973091;28;20211;-92
2020/12/04 06:43:01;;;;;;;3.70;2.60;;;6.30;99.90;;;;;;4982167;28;20202;-88
2020/12/04 06:45:48;;;;;;;3.20;2.90;;;6.20;99.90;;;;;;4966333;28;20719;-87
2020/12/04 06:48:17;;;;;;;3.03;2.50;;;6.20;99.90;;;;;;4965312;28;20203;-90
2020/12/04 06:50:51;;;;;;;2.38;2.17;;;6.20;99.90;;;;;;4974647;28;20219;-88
2020/12/04 06:53:19;;;;;;;5.00;3.00;;;6.20;99.90;;;;;;4975135;28;20582;-88
2020/12/04 06:55:48;;;;;;;4.00;3.10;;;6.20;99.90;;;;;;4974889;28;20226;-90
2020/12/04 06:58:14;;;;;;;3.40;3.10;;;6.30;99.90;;;;;;4974341;28;20508;-89
2020/12/04 07:00:42;;;;;;;3.40;2.90;;;6.30;99.90;;;;;;4958160;28;20272;-89
2020/12/04 07:03:13;;;;;;;3.40;2.42;;;6.40;99.90;;;;;;4958910;28;20736;-89
2020/12/04 07:06:04;;;;;;;3.45;2.70;;;6.30;99.90;;;;;;4973650;28;20186;-89
2020/12/04 07:08:32;;;;;;;5.45;2.65;;;6.40;99.90;;;;;;4937404;28;20195;-85
2020/12/04 07:11:06;;;;;;;3.63;3.10;;;6.40;99.90;;;;;;4974645;28;20215;-89
2020/12/04 07:13:38;;;;;;;2.80;2.60;;;6.40;99.90;;;;;;4963145;28;20200;-86
2020/12/04 07:16:06;;;;;;;3.08;2.50;;;6.40;99.90;;;;;;4967156;28;20225;-85
2020/12/04 07:18:32;;;;;;;3.17;2.67;;;6.40;99.90;;;;;;4968010;28;20632;-88
2020/12/04 07:21:03;;;;;;;3.50;3.17;;;6.40;99.90;;;;;;4972677;28;20437;-87
2020/12/04 07:23:34;;;;;;;3.05;2.50;;;6.40;99.90;;;;;;4977323;28;20306;-84
2020/12/04 07:26:04;;;;;;;2.55;2.35;;;6.50;99.90;;;;;;4960485;28;20199;-91
2020/12/04 07:28:32;;;;;;;2.55;2.35;;;6.50;99.90;;;;;;4982287;28;20257;-84
2020/12/04 07:30:58;;;;;;;3.63;2.67;;;6.50;99.90;;;;;;4943373;28;20199;-79
2020/12/04 07:33:24;;;;;;;7.03;2.60;;;6.50;99.90;;;;;;4983318;28;20210;-82
2020/12/04 07:35:50;;;;;;;2.30;2.10;;;6.50;99.90;;;;;;4976043;28;20215;-81
2020/12/04 07:38:20;;;;;;;3.30;2.75;;;6.60;99.90;;;;;;4977238;28;20577;-92
2020/12/04 07:40:46;;;;;;;2.80;2.47;;;6.60;99.90;;;;;;4978707;28;20187;-91
2020/12/04 07:43:18;;;;;;;3.00;2.80;;;6.60;99.90;;;;;;4975125;28;20198;-91
2020/12/04 07:45:46;;;;;;;2.80;2.35;;;6.60;99.90;;;;;;4970271;28;20470;-91
2020/12/04 07:48:17;;;;;;;3.25;2.47;;;6.60;99.90;;;;;;4985763;28;20199;-90
2020/12/04 07:50:43;;;;;;;3.58;3.10;;;6.70;99.90;;;;;;4980584;28;20285;-90
2020/12/04 07:53:14;;;;;;;4.10;2.33;;;6.70;99.90;;;;;;4978191;28;20250;-86
2020/12/04 07:55:44;;;;;;;3.10;2.40;;;6.70;99.90;;;;;;4973743;28;20861;-92
2020/12/04 07:58:17;;;;;;;3.42;2.40;;;6.70;99.90;;;;;;4976491;28;20194;-88
2020/12/04 08:00:45;;;;;;;2.67;2.40;;;6.80;99.90;;;;;;4980498;28;20205;-89
2020/12/04 08:03:14;;;;;;;2.90;2.53;;;6.80;99.90;;;;;;4969414;28;20222;-90
2020/12/04 08:05:41;;;;;;;3.50;2.90;;;6.70;99.90;;;;;;4955710;28;20955;-91
2020/12/04 08:08:08;;;;;;;2.28;2.08;;;6.80;99.90;;;;;;4978769;28;20254;-89
2020/12/04 08:10:37;;;;;;;2.33;2.10;;;6.90;99.90;;;;;;4960761;28;20222;-86
2020/12/04 08:13:05;;;;;;;4.83;2.17;;;6.90;99.90;;;;;;4954954;29;20655;-87
2020/12/04 08:15:43;;;;;;;3.15;2.05;;;6.90;99.90;;;;;;4982532;28;20449;-89
2020/12/04 08:18:10;;;;;;;3.38;2.38;;;6.90;99.90;;;;;;4968130;28;20536;-86
2020/12/04 08:20:39;;;;;;;2.97;2.65;;;6.90;99.90;;;;;;4976081;28;20262;-86
2020/12/04 08:23:07;;;;;;;2.58;2.35;;;6.90;99.90;;;;;;4976177;28;20290;-82
2020/12/04 08:25:34;;;;;;;2.70;2.40;;;6.90;99.90;;;;;;4975897;28;20187;-86
2020/12/04 08:28:05;;;;;;;3.60;2.45;;;7.00;99.90;;;;;;4975668;28;20714;-84
2020/12/04 08:30:38;;;;;;;2.40;2.20;;;7.10;99.90;;;;;;4947181;29;20203;-86
2020/12/04 08:33:07;;;;;;;3.15;2.20;;;7.00;99.90;;;;;;4974524;28;20190;-89
2020/12/04 08:35:42;;;;;;;2.83;2.10;;;7.00;99.90;;;;;;4968259;28;20769;-91
2020/12/04 08:38:24;;;;;;;2.33;2.13;;;7.00;99.90;;;;;;4974225;28;20183;-83
2020/12/04 08:40:54;;;;;;;2.40;1.92;;;7.00;99.90;;;;;;4977569;28;20187;-83
2020/12/04 08:43:22;;;;;;;2.20;1.98;;;7.10;99.90;;;;;;4975767;28;20199;-83
2020/12/04 08:45:56;;;;;;;2.65;2.22;;;7.10;99.90;;;;;;4977095;28;20572;-83
2020/12/04 08:48:24;;;;;;;2.47;2.28;;;7.20;99.90;;;;;;4988792;28;20670;-85
2020/12/04 08:51:16;;;;;;;2.33;1.95;;;7.20;99.90;;;;;;4975550;28;20234;-84
2020/12/04 08:53:42;;;;;;;2.38;2.17;;;7.20;99.90;;;;;;4973845;28;20262;-83
2020/12/04 08:56:08;;;;;;;3.10;2.23;;;7.20;99.90;;;;;;4975717;28;20583;-85
2020/12/04 08:58:37;;;;;;;2.33;1.90;;;7.30;99.90;;;;;;4976147;28;20422;-80
2020/12/04 09:01:05;;;;;;;3.92;2.67;;;7.30;99.90;;;;;;4975459;28;20278;-80
2020/12/04 09:03:34;;;;;;;4.28;2.00;;;7.30;99.90;;;;;;4975058;28;20199;-83
2020/12/04 09:06:02;;;;;;;3.00;2.10;;;7.40;99.90;;;;;;4979409;28;20195;-81
2020/12/04 09:08:28;;;;;;;1.85;1.70;;;7.40;99.90;;;;;;4974951;28;20190;-81
2020/12/04 09:10:54;;;;;;;2.28;1.98;;;7.50;99.90;;;;;;4992246;28;20362;-82
2020/12/04 09:13:20;;;;;;;3.10;2.10;;;7.50;99.90;;;;;;4983569;28;20648;-81
2020/12/04 09:15:49;;;;;;;2.13;1.92;;;7.50;99.90;;;;;;4966378;28;20956;-84
2020/12/04 09:18:16;;;;;;;2.33;1.80;;;7.60;99.90;;;;;;4975657;28;20281;-82
2020/12/04 09:20:42;;;;;;;3.22;2.10;;;7.50;99.90;;;;;;4960480;28;20525;-80
2020/12/04 09:23:13;;;;;;;2.57;1.90;;;7.50;99.90;;;;;;4974959;28;20278;-78
2020/12/04 09:25:41;;;;;;;6.40;1.80;;;7.50;99.90;;;;;;4970738;28;20450;-80
2020/12/04 09:28:09;;;;;;;2.22;1.38;;;7.60;99.90;;;;;;4975420;28;20202;-86
2020/12/04 09:30:35;;;;;;;2.47;2.10;;;7.60;99.90;;;;;;4992080;28;20203;-82
2020/12/04 09:33:03;;;;;;;1.77;1.67;;;7.60;99.90;;;;;;4971503;28;20246;-79
2020/12/04 09:35:29;;;;;;;2.10;1.90;;;7.70;99.90;;;;;;4977850;28;20215;-81
2020/12/04 09:37:55;;;;;;;2.28;2.00;;;7.70;99.90;;;;;;4976774;28;20206;-83
2020/12/04 09:40:24;;;;;;;1.98;1.83;;;7.70;99.90;;;;;;4971827;28;20529;-85
2020/12/04 09:42:52;;;;;;;2.33;1.75;;;7.70;99.90;;;;;;4979330;28;20193;-82
2020/12/04 09:45:18;;;;;;;2.28;1.70;;;7.80;99.90;;;;;;4969504;28;20374;-82
2020/12/04 09:47:44;;;;;;;2.40;2.20;;;7.80;99.90;;;;;;4981649;28;20199;-86
2020/12/04 09:50:12;;;;;;;1.80;1.70;;;7.90;99.90;;;;;;4966799;28;20191;-84
2020/12/04 09:52:39;;;;;;;2.00;1.80;;;8.00;99.90;;;;;;4967713;28;20195;-87
2020/12/04 09:55:09;;;;;;;2.30;1.80;;;8.00;99.90;;;;;;4975086;28;20226;-84
2020/12/04 09:57:37;;;;;;;2.25;1.98;;;8.10;99.90;;;;;;4980779;28;20628;-83
2020/12/04 10:00:10;;;;;;;2.17;1.98;;;8.10;99.90;;;;;;4976591;28;20187;-85
2020/12/04 10:02:36;;;;;;;4.30;1.48;;;8.20;99.90;;;;;;4973855;28;20585;-83
2020/12/04 10:05:05;;;;;;;2.15;1.95;;;8.20;99.90;;;;;;4974949;28;20522;-83
2020/12/04 10:07:31;;;;;;;2.58;2.38;;;8.20;99.90;;;;;;4979325;28;20234;-82
2020/12/04 10:09:57;;;;;;;1.70;1.60;;;8.20;99.90;;;;;;4957118;28;20198;-82
2020/12/04 10:12:28;;;;;;;2.20;1.60;;;8.30;99.90;;;;;;4975230;28;20223;-84
2020/12/04 10:14:54;;;;;;;2.03;1.60;;;8.30;99.90;;;;;;4974133;28;20231;-83
2020/12/04 10:17:22;;;;;;;1.52;1.40;;;8.40;99.90;;;;;;4956264;28;20502;-83
2020/12/04 10:19:51;;;;;;;3.58;2.20;;;8.30;99.90;;;;;;4979275;28;20250;-82
2020/12/04 10:22:17;;;;;;;2.05;1.80;;;8.30;99.90;;;;;;4975285;28;20187;-83
2020/12/04 10:24:47;;;;;;;2.72;2.20;;;8.30;99.90;;;;;;4961107;28;20183;-83
2020/12/04 10:27:13;;;;;;;2.60;1.93;;;8.40;99.90;;;;;;4977085;28;20239;-84
2020/12/04 10:29:39;;;;;;;2.80;2.00;;;8.40;99.90;;;;;;4973857;28;20517;-86
2020/12/04 10:32:08;;;;;;;6.97;1.90;;;8.50;99.90;;;;;;4973773;28;20446;-82
2020/12/04 10:34:36;;;;;;;2.13;1.93;;;8.50;99.90;;;;;;4956961;28;20250;-83
2020/12/04 10:37:04;;;;;;;3.55;2.13;;;8.50;99.90;;;;;;4974182;28;21018;-84
2020/12/04 10:39:30;;;;;;;1.92;1.83;;;8.50;99.90;;;;;;4974632;28;20246;-82
2020/12/04 10:41:56;;;;;;;1.80;1.70;;;8.60;99.90;;;;;;4979194;28;20183;-83
2020/12/04 10:44:23;;;;;;;1.60;1.50;;;8.70;99.90;;;;;;4957395;28;20508;-81
2020/12/04 10:46:54;;;;;;;1.92;1.80;;;8.70;99.90;;;;;;4961549;28;20544;-80
2020/12/04 10:49:22;;;;;;;1.90;1.80;;;8.80;99.90;;;;;;4942596;28;20195;-80
2020/12/04 10:51:58;;;;;;;2.03;1.77;;;8.80;99.90;;;;;;4979326;28;20750;-83
2020/12/04 10:54:26;;;;;;;1.60;1.50;;;8.70;99.90;;;;;;4976374;28;20452;-85
2020/12/04 10:56:55;;;;;;;2.53;1.65;;;8.70;99.90;;;;;;4960977;28;20309;-85
2020/12/04 10:59:22;;;;;;;1.73;1.63;;;8.70;99.90;;;;;;4976944;28;20274;-86
2020/12/04 11:02:32;;;;;;;3.00;1.83;;;8.70;99.90;;;;;;4960987;28;20293;-86
2020/12/04 11:07:24;;;;;;;2.33;1.83;;;8.70;99.90;;;;;;4976400;28;20195;-84
2020/12/04 11:09:50;;;;;;;2.00;1.80;;;8.80;99.90;;;;;;4977194;28;20462;-84
2020/12/04 11:12:19;;;;;;;2.20;2.00;;;8.80;99.90;;;;;;4961738;28;20523;-85
2020/12/04 11:14:45;;;;;;;3.47;1.90;;;8.70;99.90;;;;;;4983474;28;20435;-84
2020/12/04 11:17:11;;;;;;;2.88;2.08;;;8.70;99.90;;;;;;4976832;28;20214;-85
2020/12/04 11:19:37;;;;;;;3.00;2.70;;;8.70;99.90;;;;;;4979300;28;20613;-87
2020/12/04 11:22:06;;;;;;;2.23;2.00;;;8.80;99.90;;;;;;4942067;28;20840;-92
2020/12/04 11:24:32;;;;;;;3.07;1.93;;;8.90;99.90;;;;;;4973620;28;20434;-84
2020/12/04 11:27:00;;;;;;;2.20;2.00;;;8.90;99.90;;;;;;4971051;28;20895;-85
2020/12/04 11:29:29;;;;;;;2.73;2.20;;;8.90;99.90;;;;;;4962167;28;20446;-88
2020/12/04 11:31:59;;;;;;;2.23;1.80;;;8.90;99.90;;;;;;4976010;28;20422;-86
2020/12/04 11:34:30;;;;;;;2.50;2.10;;;8.90;99.90;;;;;;4995595;28;20541;-85
2020/12/04 11:36:58;;;;;;;2.87;2.10;;;8.90;99.90;;;;;;4960289;28;20609;-83
2020/12/04 11:39:25;;;;;;;2.37;2.17;;;8.90;99.90;;;;;;4981455;28;20513;-83
2020/12/04 11:41:52;;;;;;;3.60;1.97;;;9.00;99.90;;;;;;4977252;28;20430;-82
2020/12/04 11:44:22;;;;;;;2.33;1.87;;;9.10;99.90;;;;;;4988506;28;20431;-82
2020/12/04 11:46:54;;;;;;;2.53;2.33;;;9.00;99.90;;;;;;4978659;28;20478;-82
2020/12/04 11:49:19;;;;;;;2.20;1.93;;;9.00;99.90;;;;;;4976680;28;20431;-83
2020/12/04 11:51:46;;;;;;;2.57;2.00;;;9.00;99.90;;;;;;4976567;28;20489;-83
2020/12/04 11:54:12;;;;;;;3.10;2.10;;;9.10;99.90;;;;;;4992090;28;20463;-82
2020/12/04 11:56:38;;;;;;;5.60;2.20;;;9.10;99.90;;;;;;4974833;28;20801;-83
2020/12/04 11:59:10;;;;;;;3.10;2.07;;;9.10;99.90;;;;;;4953667;29;20490;-84
2020/12/04 12:01:36;;;;;;;2.10;2.00;;;9.10;99.90;;;;;;4996429;28;20450;-83
2020/12/04 12:04:02;;;;;;;6.30;2.00;;;9.10;99.90;;;;;;4976746;28;20443;-83
2020/12/04 12:06:30;;;;;;;3.40;2.07;;;9.10;99.90;;;;;;4982748;28;20516;-83
2020/12/04 12:08:56;;;;;;;2.07;1.77;;;9.00;99.90;;;;;;4976953;28;20910;-83
2020/12/04 12:11:23;;;;;;;3.00;1.67;;;9.00;99.90;;;;;;4965964;28;20457;-83
2020/12/04 12:13:51;;;;;;;4.03;1.90;;;9.00;99.90;;;;;;4976417;28;20439;-82
2020/12/04 12:16:19;;;;;;;4.57;2.40;;;9.00;99.90;;;;;;4977556;28;20536;-83
2020/12/04 12:18:48;;;;;;;2.40;1.97;;;9.00;99.90;;;;;;4991686;28;20453;-83
2020/12/04 12:21:17;;;;;;;1.80;1.70;;;9.00;99.90;;;;;;4978327;28;20441;-84
2020/12/04 12:23:47;;;;;;;2.00;1.80;;;9.00;99.90;;;;;;4979143;28;20447;-83
2020/12/04 12:26:14;;;;;;;1.70;1.60;;;9.00;99.90;;;;;;4982537;28;20457;-84
2020/12/04 12:28:40;;;;;;;1.90;1.80;;;9.10;99.90;;;;;;4976095;28;20458;-83
2020/12/04 12:31:08;;;;;;;2.77;1.93;;;9.10;99.90;;;;;;4973660;28;20918;-82
2020/12/04 12:33:34;;;;;;;2.87;2.03;;;9.20;99.90;;;;;;4959329;28;20496;-83
2020/12/04 12:36:03;;;;;;;2.10;2.00;;;9.20;99.90;;;;;;4981922;28;20466;-84
2020/12/04 12:38:29;;;;;;;3.40;2.40;;;9.20;99.90;;;;;;4976248;28;20517;-84
2020/12/04 12:40:57;;;;;;;1.90;1.80;;;9.30;99.90;;;;;;4976479;28;20596;-83
2020/12/04 12:43:22;;;;;;;1.70;1.60;;;9.30;99.90;;;;;;4976158;28;20423;-83
2020/12/04 12:45:48;;;;;;;3.33;2.17;;;9.30;99.90;;;;;;4959430;28;20482;-83
2020/12/04 12:48:17;;;;;;;2.10;2.00;;;9.30;99.90;;;;;;4974689;28;20437;-84
2020/12/04 12:50:44;;;;;;;2.77;2.37;;;9.30;99.90;;;;;;4976414;28;20431;-83
2020/12/04 12:53:09;;;;;;;1.90;1.80;;;9.30;99.90;;;;;;4963176;28;20942;-83
2020/12/04 12:55:38;;;;;;;2.07;1.97;;;9.20;99.90;;;;;;4958990;28;20466;-84
2020/12/04 12:58:04;;;;;;;2.33;1.80;;;9.10;99.90;;;;;;4974474;28;20556;-83
2020/12/04 13:00:30;;;;;;;6.40;1.90;;;9.10;99.90;;;;;;4975772;28;20521;-83
2020/12/04 13:02:56;;;;;;;2.43;2.23;;;9.00;99.90;;;;;;4974482;28;20423;-82
2020/12/04 13:05:31;;;;;;;2.07;1.87;;;9.00;99.90;;;;;;4976221;28;20767;-82